1930 Tropical Cyclone NOT_NAMED (1930019S15153)


IBTrACS version v04r00. Visit IBTrACS website for data access.
Please direct all questions to the IBTrACS Q and A forum

Storm track - Intensity - Wind Radii - Intensity Data - Source Data - All data

Summary Information

Storm ID 1930019S15153
Start Jan 18 23Z
Landfall Jan 21 03Z
Max Intensity 35 kt (Jan 21 00Z), 996 mb (Jan 20 23Z)
End Jan 22 23Z
ATCF IDs
Track status Best track data.

Storm track plot

Map of storm track

Intensity plots

Map of storm track

Radial wind information

No radial wind information for this storm


Position and Intensity Table

BASIN ISO_TIME_________ NATURE LAT LON WMO PRES BOM PRES DS824 WIND DS824 PRES
degrees north degrees east mb mb kts mb
SP 1930-01-18 23:00:00 NR -15.10 152.85
SP 1930-01-19 00:00:00 TS -15.05 152.61
SP 03:00:00 TS -15.00 151.89
SP 06:00:00 TS -14.98 151.18
SP 09:00:00 TS -14.96 150.48
SP 11:00:00 TS -14.97 150.02
SP 12:00:00 TS -14.97 149.79
SP 15:00:00 TS -15.00 149.13
SP 18:00:00 TS -15.05 148.52
SP 21:00:00 TS -15.10 148.00
SP 23:00:00 TS -15.13 147.71
SP 1930-01-20 00:00:00 TS -15.14 147.60
SP 03:00:00 TS -15.17 147.33
SP 06:00:00 TS -15.21 147.15
SP 09:00:00 TS -15.26 147.01
SP 11:00:00 TS -15.30 146.91
SP 12:00:00 TS -15.32 146.86
SP 15:00:00 TS -15.40 146.68
SP 18:00:00 TS -15.51 146.47
SP 21:00:00 TS -15.66 146.19
SP 23:00:00 TS -15.78 145.96 996 996
SP 1930-01-21 00:00:00 TS -15.85 145.83 35 996
SP 02:00:00 TS -16.00 145.54
SP 03:00:00 TS -16.08 145.40
SP 06:00:00 TS -16.31 144.96
SP 09:00:00 TS -16.56 144.51
SP 11:00:00 TS -16.72 144.21
SP 12:00:00 TS -16.80 144.06
SP 15:00:00 TS -17.05 143.62
SP 18:00:00 TS -17.30 143.19
SP 21:00:00 TS -17.56 142.76
SP 23:00:00 TS -17.72 142.49
SP 1930-01-22 00:00:00 TS -17.80 142.38
SP 03:00:00 NR -18.01 142.08
SP 06:00:00 NR -18.20 141.78
SP 09:00:00 NR -18.39 141.50
SP 11:00:00 NR -18.52 141.32
SP 12:00:00 NR -18.59 141.22
SP 15:00:00 NR -18.81 140.93
SP 18:00:00 NR -19.05 140.64
SP 21:00:00 NR -19.29 140.35
SP 23:00:00 NR -19.45 140.15

Source Information

Agency Information
USA
TOKYO
CMA
HKO
NEWDELHI
REUNION
BOM IDCKMSTM0S.csv:Line=722:unnamed
NADI
WELLINGTON
DS824 aus_area.dat:70:NOT NAMED
TD9636 cons_worldwide_trop_cyclone_18710101-19891231-006:Line=1784
TD9635
NEUMANN
MLC

All available IBTrACS Data

SEASON BASIN SUBBASIN ISO_TIME_________ NATURE LAT LON WMO PRES WMO AGENCY DIST2LAND LANDFALL IFLAG USA SSHS BOM LAT BOM LON BOM PRES BOM PRES_METHOD DS824 LAT DS824 LON DS824 STAGE DS824 WIND DS824 PRES TD9636 LAT TD9636 LON TD9636 STAGE STORM SPEED STORM DIR
Year degrees north degrees east mb km km 1 degrees north degrees east mb degrees north degrees east kts mb degrees north degrees east kts degrees
1930 SP EA 1930-01-18 23:00:00 NR -15.10 152.85 bom 557 548 ______O___O___ -1 -14.90 152.80 -15.30 152.90 7 14 283
1930 SP EA 1930-01-19 00:00:00 TS -15.05 152.61 534 508 ______P__OP___ -1 -14.91 152.54 -14.90 152.60 TC -15.26 152.69 7 14 276
1930 SP EA 03:00:00 TS -15.00 151.89 508 489 ______P__PP___ -1 -14.93 151.76 -14.90 151.88 TC -15.14 152.04 7 14 273
1930 SP EA 06:00:00 TS -14.98 151.18 489 481 ______P__PP___ -1 -14.95 151.00 -14.91 151.16 TC -15.05 151.38 7 14 272
1930 SP EA 09:00:00 TS -14.96 150.48 481 481 ______P__PP___ -1 -14.97 150.28 -14.91 150.47 TC -15.00 150.68 7 14 271
1930 SP EA 11:00:00 TS -14.97 150.02 481 473 ______P__PO___ -1 -14.98 149.82 -14.92 150.03 TC -15.00 150.20 7 13 269
1930 SP EA 12:00:00 TS -14.97 149.79 473 409 ______P__PP___ -1 -14.98 149.61 -14.92 149.81 TC -15.01 149.95 7 13 267
1930 SP EA 15:00:00 TS -15.00 149.13 398 334 ______P__PP___ -1 -14.99 149.00 -14.93 149.19 TC -15.09 149.19 7 12 266
1930 SP EA 18:00:00 TS -15.05 148.52 334 280 ______P__PP___ -1 -15.00 148.47 -14.94 148.63 TC -15.20 148.46 7 11 265
1930 SP EA 21:00:00 TS -15.10 148.00 280 247 ______P__PP___ -1 -15.00 148.03 -14.97 148.13 TC -15.33 147.83 7 9 264
1930 SP EA 23:00:00 TS -15.13 147.71 bom 247 237 ______O__PO___ -1 -15.00 147.80 -14.99 147.83 TC -15.40 147.50 7 8 264
1930 SP EA 1930-01-20 00:00:00 TS -15.14 147.60 237 204 ______P__OP___ -1 -15.00 147.70 -15.00 147.70 TC -15.42 147.38 7 6 263
1930 SP EA 03:00:00 TS -15.17 147.33 204 193 ______P__PP___ -1 -15.00 147.48 -15.04 147.35 TC -15.48 147.15 7 4 261
1930 SP EA 06:00:00 TS -15.21 147.15 182 171 ______P__PP___ -1 -15.01 147.33 -15.10 147.07 TC -15.52 147.03 7 3 255
1930 SP EA 09:00:00 TS -15.26 147.01 171 160 ______P__PP___ -1 -15.04 147.21 -15.17 146.84 TC -15.57 146.96 7 3 248
1930 SP EA 11:00:00 TS -15.30 146.91 160 160 ______P__PO___ -1 -15.07 147.13 -15.23 146.71 TC -15.60 146.90 7 3 246
1930 SP EA 12:00:00 TS -15.32 146.86 160 139 ______P__PP___ -1 -15.09 147.09 -15.26 146.64 TC -15.61 146.84 7 4 245
1930 SP EA 15:00:00 TS -15.40 146.68 139 120 ______P__PP___ -1 -15.19 146.92 -15.36 146.46 TC -15.66 146.67 7 4 243
1930 SP EA 18:00:00 TS -15.51 146.47 120 91 ______P__PP___ -1 -15.33 146.68 -15.49 146.27 TC -15.72 146.46 7 5 242
1930 SP EA 21:00:00 TS -15.66 146.19 87 63 ______P__PP___ -1 -15.53 146.32 -15.63 146.05 TC -15.81 146.20 7 7 241
1930 SP EA 23:00:00 TS -15.78 145.96 996 bom 63 54 ______O__PO___ -1 -15.70 146.00 996 4 -15.74 145.89 TC -15.90 146.00 7 8 241
1930 SP EA 1930-01-21 00:00:00 TS -15.85 145.83 44 15 ______P__OP___ -1 -15.80 145.80 -15.80 145.80 TC 35 996 -15.95 145.89 7 9 242
1930 SP EA 02:00:00 TS -16.00 145.54 bom 10 0 ______O__PP___ -1 -16.00 145.40 -15.92 145.60 TC -16.07 145.63 7 9 241
1930 SP EA 03:00:00 TS -16.08 145.40 0 0 ______P__PP___ -1 -16.10 145.21 -15.99 145.49 TC -16.14 145.50 7 10 241
1930 SP EA 06:00:00 TS -16.31 144.96 0 0 ______P__PP___ -1 -16.37 144.67 -16.20 145.13 TC -16.37 145.06 7 10 241
1930 SP EA 09:00:00 TS -16.56 144.51 0 0 ______P__PP___ -1 -16.62 144.19 -16.43 144.73 TC -16.62 144.60 7 10 240
1930 SP EA 11:00:00 TS -16.72 144.21 0 0 ______P__PO___ -1 -16.78 143.89 -16.58 144.44 TC -16.80 144.30 7 10 240
1930 SP EA 12:00:00 TS -16.80 144.06 0 0 ______P__PP___ -1 -16.86 143.74 -16.67 144.29 TC -16.89 144.15 7 10 240
1930 SP EA 15:00:00 TS -17.05 143.62 0 0 ______P__PP___ -1 -17.08 143.34 -16.92 143.82 TC -17.16 143.71 7 10 239
1930 SP EA 18:00:00 TS -17.30 143.19 0 0 ______P__PP___ -1 -17.29 142.96 -17.17 143.33 TC -17.44 143.27 7 10 239
1930 SP EA 21:00:00 TS -17.56 142.76 0 0 ______P__PP___ -1 -17.48 142.62 -17.44 142.82 TC -17.72 142.85 7 9 237
1930 SP EA 23:00:00 TS -17.72 142.49 bom 0 0 ______O__PO___ -1 -17.60 142.40 -17.61 142.47 TC -17.90 142.60 7 9 236
1930 SP EA 1930-01-22 00:00:00 TS -17.80 142.38 0 0 ______P__OP___ -1 -17.66 142.29 -17.70 142.30 TC -17.98 142.48 7 7 234
1930 SP EA 03:00:00 NR -18.01 142.08 0 0 ______P___P___ -1 -17.83 141.99 TC -18.19 142.16 7 7 235
1930 SP EA 06:00:00 NR -18.20 141.78 0 0 ______P___P___ -1 -17.99 141.69 TC -18.41 141.87 7 7 235
1930 SP EA 09:00:00 NR -18.39 141.50 0 0 ______P___P___ -1 -18.14 141.41 TC -18.63 141.59 7 7 234
1930 SP EA 11:00:00 NR -18.52 141.32 0 0 ______P___O___ -1 -18.24 141.23 TC -18.80 141.40 7 7 232
1930 SP EA 12:00:00 NR -18.59 141.22 0 0 ______P___P___ -1 -18.29 141.14 TC -18.89 141.30 7 7 231
1930 SP EA 15:00:00 NR -18.81 140.93 0 0 ______P___P___ -1 -18.43 140.88 TC -19.19 140.99 7 7 230
1930 SP EA 18:00:00 NR -19.05 140.64 0 0 ______P___P___ -1 -18.57 140.62 TC -19.52 140.66 7 7 229
1930 SP EA 21:00:00 NR -19.29 140.35 0 0 ______P___P___ -1 -18.71 140.37 TC -19.86 140.33 7 7 229
1930 SP EA 23:00:00 NR -19.45 140.15 bom 0 ______O___O___ -1 -18.80 140.20 TC -20.10 140.10 7 7 229